createdAt,value
2023-05-03T00:02:02.118Z,82.20
2023-05-03T00:04:33.392Z,84.00
2023-05-03T00:07:01.584Z,82.40
2023-05-03T00:09:37.020Z,81.80
2023-05-03T00:12:06.150Z,82.50
2023-05-03T00:14:36.824Z,84.60
2023-05-03T00:17:11.193Z,82.90
2023-05-03T00:19:39.995Z,83.00
2023-05-03T00:22:12.627Z,83.90
2023-05-03T00:24:41.844Z,84.30
2023-05-03T00:27:09.769Z,81.10
2023-05-03T00:29:37.619Z,82.80
2023-05-03T00:32:05.862Z,83.60
2023-05-03T00:34:33.792Z,83.30
2023-05-03T00:37:07.535Z,83.10
2023-05-03T00:39:42.815Z,82.90
2023-05-03T00:42:12.789Z,87.10
2023-05-03T00:44:40.644Z,89.70
2023-05-03T00:47:14.657Z,84.90
2023-05-03T00:49:43.149Z,82.60
2023-05-03T00:52:12.045Z,82.40
2023-05-03T00:54:52.232Z,83.50
2023-05-03T00:57:24.916Z,84.00
2023-05-03T01:00:02.017Z,88.40
2023-05-03T01:02:36.099Z,93.30
2023-05-03T01:05:07.366Z,91.40
2023-05-03T01:07:44.144Z,87.40
2023-05-03T01:10:37.163Z,84.90
2023-05-03T01:13:14.065Z,82.00
2023-05-03T01:15:58.309Z,83.90
2023-05-03T01:18:32.302Z,90.70
2023-05-03T01:21:01.818Z,82.50
2023-05-03T01:23:36.627Z,82.60
2023-05-03T01:26:22.062Z,83.10
2023-05-03T01:28:50.071Z,85.90
2023-05-03T01:31:29.663Z,86.20
2023-05-03T01:34:22.956Z,91.30
2023-05-03T01:36:58.504Z,84.50
2023-05-03T01:39:32.523Z,84.40
2023-05-03T01:42:05.922Z,83.10
2023-05-03T01:44:47.007Z,81.80
2023-05-03T01:47:21.121Z,83.50
2023-05-03T01:49:49.002Z,90.60
2023-05-03T01:52:19.616Z,90.90
2023-05-03T01:54:47.554Z,90.50
2023-05-03T01:57:19.823Z,87.50
2023-05-03T01:59:47.682Z,84.90
2023-05-03T02:02:15.642Z,82.90
2023-05-03T02:04:48.879Z,82.90
2023-05-03T02:07:16.811Z,85.80
2023-05-03T02:09:47.654Z,82.10
2023-05-03T02:12:15.534Z,82.70
2023-05-03T02:14:44.765Z,81.30
2023-05-03T02:17:26.200Z,80.80
2023-05-03T02:19:54.558Z,81.30
2023-05-03T02:22:25.250Z,87.10
2023-05-03T02:24:53.186Z,87.00
2023-05-03T02:27:22.955Z,83.90
2023-05-03T02:29:52.177Z,85.30
2023-05-03T02:32:20.922Z,83.40
2023-05-03T02:34:58.019Z,83.10
2023-05-03T02:37:31.835Z,88.10
2023-05-03T02:40:02.634Z,91.80
2023-05-03T02:42:30.872Z,87.50
2023-05-03T02:45:00.006Z,83.50
2023-05-03T02:47:30.038Z,82.60
2023-05-03T02:49:57.872Z,83.40
2023-05-03T02:52:25.768Z,88.40
2023-05-03T02:54:53.619Z,90.00
2023-05-03T02:57:32.652Z,82.50
2023-05-03T03:00:06.414Z,86.70
2023-05-03T03:02:38.441Z,86.90
2023-05-03T03:05:09.877Z,83.30
2023-05-03T03:07:41.297Z,87.10
2023-05-03T03:10:23.663Z,89.40
2023-05-03T03:13:00.710Z,83.90
2023-05-03T03:15:48.424Z,85.30
2023-05-03T03:18:17.733Z,87.00
2023-05-03T03:20:46.838Z,86.30
2023-05-03T03:23:26.990Z,88.90
2023-05-03T03:26:03.867Z,92.80
2023-05-03T03:28:37.030Z,88.60
2023-05-03T03:31:06.519Z,83.60
2023-05-03T03:33:43.456Z,83.10
2023-05-03T03:36:33.275Z,85.10
2023-05-03T03:39:04.869Z,88.20
2023-05-03T03:41:48.415Z,90.20
2023-05-03T03:44:35.020Z,85.90
2023-05-03T03:47:10.378Z,84.60
2023-05-03T03:49:56.945Z,84.70
2023-05-03T03:52:32.571Z,87.20
2023-05-03T03:55:03.600Z,91.00
2023-05-03T03:57:39.594Z,93.60
2023-05-03T04:00:11.798Z,92.20
2023-05-03T04:02:41.329Z,89.70
2023-05-03T04:05:09.689Z,85.00
2023-05-03T04:07:37.631Z,84.10
2023-05-03T04:10:09.664Z,87.10
2023-05-03T04:12:47.017Z,90.20
2023-05-03T04:15:17.711Z,83.70
2023-05-03T04:17:57.622Z,87.20
2023-05-03T04:20:25.511Z,91.50
2023-05-03T04:22:53.460Z,92.30
2023-05-03T04:25:27.814Z,85.30
2023-05-03T04:28:01.703Z,85.40
2023-05-03T04:30:35.780Z,91.80
2023-05-03T04:33:05.186Z,93.00
2023-05-03T04:35:36.134Z,90.20
2023-05-03T04:38:07.256Z,88.40
2023-05-03T04:40:35.596Z,91.10
2023-05-03T04:43:03.604Z,91.90
2023-05-03T04:45:34.332Z,88.50
2023-05-03T04:48:05.358Z,87.50
2023-05-03T04:50:37.608Z,86.00
2023-05-03T04:53:05.490Z,88.90
2023-05-03T04:55:36.440Z,92.80
2023-05-03T04:58:04.276Z,90.40
2023-05-03T05:00:35.133Z,89.00
2023-05-03T05:03:06.311Z,89.50
2023-05-03T05:05:44.812Z,88.70
2023-05-03T05:08:16.019Z,88.20
2023-05-03T05:10:44.106Z,90.60
2023-05-03T05:13:11.982Z,91.10
2023-05-03T05:15:48.779Z,90.70
2023-05-03T05:18:19.400Z,89.70
2023-05-03T05:20:51.691Z,89.60
2023-05-03T05:23:20.048Z,90.10
2023-05-03T05:25:50.722Z,90.20
2023-05-03T05:28:21.631Z,90.00
2023-05-03T05:30:49.511Z,90.00
2023-05-03T05:33:19.130Z,90.20
2023-05-03T05:35:50.764Z,90.70
2023-05-03T05:38:21.392Z,89.40
2023-05-03T05:40:49.345Z,87.80
2023-05-03T05:43:17.310Z,88.80
2023-05-03T05:45:45.276Z,89.60
2023-05-03T05:48:13.233Z,88.90
2023-05-03T05:50:41.204Z,88.90
2023-05-03T05:53:16.650Z,88.90
2023-05-03T05:55:44.502Z,87.90
2023-05-03T05:58:13.984Z,90.10
2023-05-03T06:00:45.114Z,87.90
2023-05-03T06:03:13.051Z,91.20
2023-05-03T06:05:41.140Z,89.30
2023-05-03T06:08:13.453Z,87.90
2023-05-03T06:10:44.197Z,86.20
2023-05-03T06:13:12.107Z,88.70
2023-05-03T06:15:39.979Z,88.10
2023-05-03T06:18:08.152Z,89.30
2023-05-03T06:20:36.112Z,89.60
2023-05-03T06:23:04.004Z,89.10
2023-05-03T06:25:39.421Z,88.50
2023-05-03T06:28:07.292Z,88.00
2023-05-03T06:30:41.295Z,88.80
2023-05-03T06:33:14.877Z,88.10
2023-05-03T06:35:59.585Z,89.10
2023-05-03T06:38:50.826Z,90.10
2023-05-03T06:41:25.862Z,88.40
2023-05-03T06:43:56.082Z,89.60
2023-05-03T06:49:19.645Z,89.30
2023-05-03T06:51:47.502Z,88.40
2023-05-03T06:54:21.270Z,86.70
2023-05-03T06:57:04.007Z,87.30
2023-05-03T06:59:37.679Z,85.90
2023-05-03T07:02:05.781Z,86.10
2023-05-03T07:04:33.819Z,85.30
2023-05-03T07:07:01.770Z,86.00
2023-05-03T07:09:42.061Z,86.30
2023-05-03T07:12:12.817Z,85.90
2023-05-03T07:14:40.775Z,83.40
2023-05-03T07:17:08.922Z,85.00
2023-05-03T07:19:37.151Z,84.80
2023-05-03T07:22:05.396Z,84.30
2023-05-03T07:24:36.634Z,84.40
2023-05-03T07:27:05.214Z,85.50
2023-05-03T07:29:34.601Z,84.20
2023-05-03T07:32:03.579Z,83.40
2023-05-03T07:34:45.386Z,82.90
2023-05-03T07:37:13.291Z,83.60
2023-05-03T07:39:45.243Z,89.30
2023-05-03T07:42:13.118Z,88.10
2023-05-03T07:44:45.317Z,82.40
2023-05-03T07:47:16.042Z,82.70
2023-05-03T07:49:43.940Z,80.20
2023-05-03T07:52:14.794Z,80.50
2023-05-03T07:54:43.671Z,81.70
2023-05-03T07:57:11.566Z,82.50
2023-05-03T07:59:41.862Z,82.00
2023-05-03T08:02:14.244Z,81.50
2023-05-03T08:04:47.681Z,81.40
2023-05-03T08:07:15.780Z,81.00
2023-05-03T08:09:53.646Z,79.20
2023-05-03T08:12:21.530Z,80.70
2023-05-03T08:14:49.392Z,79.10
2023-05-03T08:17:18.638Z,79.70
2023-05-03T08:19:49.298Z,80.00
2023-05-03T08:22:18.162Z,87.30
2023-05-03T08:24:46.334Z,80.80
2023-05-03T08:27:14.255Z,83.60
2023-05-03T08:29:42.343Z,81.90
2023-05-03T08:32:12.723Z,79.30
2023-05-03T08:34:41.964Z,77.30
2023-05-03T08:37:12.932Z,76.90
2023-05-03T08:39:47.487Z,79.20
2023-05-03T08:42:15.592Z,77.60
2023-05-03T08:44:47.929Z,77.70
2023-05-03T08:47:16.678Z,84.80
2023-05-03T08:49:46.261Z,82.30
2023-05-03T08:52:18.262Z,77.50
2023-05-03T08:54:52.272Z,78.20
2023-05-03T08:57:20.671Z,78.80
2023-05-03T08:59:49.682Z,79.80
2023-05-03T09:02:18.489Z,78.40
2023-05-03T09:04:47.816Z,80.10
2023-05-03T09:07:16.719Z,84.60
2023-05-03T09:09:46.892Z,79.40
2023-05-03T09:12:35.015Z,78.50
2023-05-03T09:15:06.967Z,78.70
2023-05-03T09:17:34.905Z,81.40
2023-05-03T09:20:04.639Z,80.10
2023-05-03T09:22:33.953Z,81.80
2023-05-03T09:25:04.053Z,78.90
2023-05-03T09:27:31.976Z,83.70
2023-05-03T09:30:18.527Z,79.80
2023-05-03T09:32:49.889Z,79.00
2023-05-03T09:35:19.285Z,79.80
2023-05-03T09:37:50.429Z,81.60
2023-05-03T09:40:27.807Z,79.80
2023-05-03T09:43:09.398Z,81.80
2023-05-03T09:45:37.703Z,83.00
2023-05-03T09:48:08.184Z,82.90
2023-05-03T09:50:38.194Z,82.80
2023-05-03T09:53:07.625Z,81.00
2023-05-03T09:55:41.867Z,81.30
2023-05-03T09:58:10.544Z,80.80
2023-05-03T10:00:42.610Z,80.20
2023-05-03T10:03:12.192Z,80.10
2023-05-03T10:05:49.992Z,78.50
2023-05-03T10:08:26.823Z,82.40
2023-05-03T10:10:55.199Z,81.60
2023-05-03T10:13:24.445Z,79.60
2023-05-03T10:15:58.749Z,80.70
2023-05-03T10:18:29.844Z,80.00
2023-05-03T10:21:04.913Z,80.40
2023-05-03T10:23:35.918Z,79.80
2023-05-03T10:26:17.045Z,80.20
2023-05-03T10:28:46.487Z,81.30
2023-05-03T10:31:50.608Z,82.50
2023-05-03T10:34:22.650Z,81.70
2023-05-03T10:36:55.410Z,82.10
2023-05-03T10:39:23.489Z,84.00
2023-05-03T10:42:03.077Z,84.00
2023-05-03T10:44:41.044Z,82.40
2023-05-03T10:47:14.534Z,82.00
2023-05-03T10:49:42.432Z,80.40
2023-05-03T10:52:49.232Z,78.80
2023-05-03T10:55:20.687Z,81.10
2023-05-03T10:57:50.399Z,80.40
2023-05-03T11:00:23.409Z,79.00
2023-05-03T11:03:10.879Z,79.30
2023-05-03T11:05:39.134Z,77.50
2023-05-03T11:08:12.790Z,79.30
2023-05-03T11:10:41.068Z,78.00
2023-05-03T11:13:08.986Z,83.10
2023-05-03T11:15:37.357Z,81.10
2023-05-03T11:18:07.124Z,80.70
2023-05-03T11:20:35.213Z,81.80
2023-05-03T11:23:03.791Z,79.60
2023-05-03T11:25:33.894Z,80.30
2023-05-03T11:28:07.677Z,78.60
2023-05-03T11:30:39.289Z,79.50
2023-05-03T11:33:10.264Z,77.30
2023-05-03T11:35:39.140Z,80.20
2023-05-03T11:38:10.389Z,79.70
2023-05-03T11:40:39.914Z,78.20
2023-05-03T11:43:13.664Z,76.90
2023-05-03T11:45:45.239Z,76.30
2023-05-03T11:48:14.192Z,76.50
2023-05-03T11:50:46.846Z,78.90
2023-05-03T11:53:21.701Z,76.80
2023-05-03T11:56:02.041Z,77.80
2023-05-03T11:58:29.919Z,77.80
2023-05-03T12:00:58.732Z,76.60
2023-05-03T12:03:32.753Z,74.50
2023-05-03T12:06:02.651Z,74.90
2023-05-03T12:08:35.366Z,75.90
2023-05-03T12:11:09.437Z,76.90
2023-05-03T12:13:40.581Z,78.00
2023-05-03T12:16:13.512Z,78.40
2023-05-03T12:18:51.568Z,73.90
2023-05-03T12:23:56.660Z,73.40
2023-05-03T12:26:27.271Z,74.00
2023-05-03T12:28:57.967Z,74.10
2023-05-03T12:31:29.505Z,75.70
2023-05-03T12:34:27.336Z,75.10
2023-05-03T12:36:49.164Z,75.50
2023-05-03T12:39:20.427Z,70.40
2023-05-03T12:42:06.777Z,75.10
2023-05-03T12:44:35.669Z,73.50
2023-05-03T12:47:04.664Z,73.00
2023-05-03T12:49:33.031Z,70.80
2023-05-03T12:54:47.247Z,74.00
2023-05-03T12:57:23.247Z,75.10
2023-05-03T12:59:54.014Z,74.90
2023-05-03T13:05:00.758Z,78.60
2023-05-03T13:07:32.040Z,74.40
2023-05-03T13:12:36.300Z,73.10
2023-05-03T13:15:05.083Z,73.10
2023-05-03T13:17:36.315Z,72.40
2023-05-03T13:20:09.122Z,69.70
2023-05-03T13:22:37.006Z,69.30
2023-05-03T13:25:08.227Z,71.80
2023-05-03T13:27:37.748Z,71.80
2023-05-03T13:30:09.967Z,74.00
2023-05-03T13:32:37.921Z,74.60
2023-05-03T13:35:12.303Z,76.30
2023-05-03T13:37:40.363Z,75.10
2023-05-03T13:40:15.231Z,75.90
2023-05-03T13:42:44.467Z,75.00
2023-05-03T13:45:13.578Z,74.40
2023-05-03T13:48:05.167Z,74.60
2023-05-03T13:50:30.383Z,73.10
2023-05-03T13:52:58.297Z,74.60
2023-05-03T13:55:26.925Z,74.60
2023-05-03T13:57:57.172Z,74.40
2023-05-03T14:00:27.016Z,73.80
2023-05-03T14:02:55.647Z,70.90
2023-05-03T14:05:23.518Z,74.50
2023-05-03T14:07:51.421Z,72.60
2023-05-03T14:10:19.588Z,73.40
2023-05-03T14:12:47.516Z,74.40
2023-05-03T14:15:17.406Z,71.20
2023-05-03T14:17:48.499Z,75.00
2023-05-03T14:20:17.395Z,72.00
2023-05-03T14:22:45.889Z,73.20
2023-05-03T14:25:13.807Z,73.00
2023-05-03T14:27:41.722Z,74.40
2023-05-03T14:30:10.657Z,73.30
2023-05-03T14:32:39.934Z,74.20
2023-05-03T14:35:14.066Z,73.80
2023-05-03T14:37:42.123Z,73.20
2023-05-03T14:40:14.324Z,72.80
2023-05-03T14:42:42.251Z,71.60
2023-05-03T14:45:12.768Z,72.10
2023-05-03T14:47:42.277Z,72.80
2023-05-03T14:50:10.844Z,72.00
2023-05-03T14:52:38.774Z,73.00
2023-05-03T14:55:07.873Z,72.40
2023-05-03T14:57:39.530Z,72.90
2023-05-03T15:00:14.369Z,72.60
2023-05-03T15:02:43.830Z,75.70
2023-05-03T15:05:19.188Z,73.80
2023-05-03T15:07:47.086Z,71.90
2023-05-03T15:10:28.858Z,69.30
2023-05-03T15:12:59.178Z,69.50
2023-05-03T15:15:27.153Z,75.10
2023-05-03T15:17:56.984Z,71.00
2023-05-03T15:20:25.447Z,68.00
2023-05-03T15:22:53.315Z,69.40
2023-05-03T15:25:21.424Z,69.20
2023-05-03T15:27:49.510Z,68.40
2023-05-03T15:30:32.597Z,69.10
2023-05-03T15:33:02.154Z,67.90
2023-05-03T15:35:33.754Z,68.40
2023-05-03T15:38:01.624Z,68.60
2023-05-03T15:40:29.817Z,74.50
2023-05-03T15:43:00.939Z,68.50
2023-05-03T15:45:32.966Z,68.70
2023-05-03T15:48:17.174Z,71.70
2023-05-03T15:50:45.042Z,70.20
2023-05-03T15:53:15.728Z,70.60
2023-05-03T15:55:49.645Z,68.20
2023-05-03T15:58:23.086Z,69.20
2023-05-03T16:00:52.200Z,69.70
2023-05-03T16:03:24.001Z,70.80
2023-05-03T16:05:55.853Z,68.70
2023-05-03T16:08:23.801Z,69.60
2023-05-03T16:10:51.963Z,70.10
2023-05-03T16:13:27.426Z,70.70
2023-05-03T16:15:56.254Z,69.70
2023-05-03T16:18:26.831Z,71.10
2023-05-03T16:20:57.900Z,68.30
2023-05-03T16:23:25.810Z,69.00
2023-05-03T16:25:53.640Z,68.80
2023-05-03T16:28:21.477Z,69.20
2023-05-03T16:30:52.555Z,70.10
2023-05-03T16:33:20.963Z,69.00
2023-05-03T16:35:52.737Z,69.80
2023-05-03T16:38:30.595Z,70.20
2023-05-03T16:41:04.706Z,69.80
2023-05-03T16:43:35.957Z,69.30
2023-05-03T16:46:06.662Z,69.90
2023-05-03T16:48:34.985Z,70.10
2023-05-03T16:51:07.359Z,70.50
2023-05-03T16:53:35.288Z,69.00
2023-05-03T16:56:03.356Z,69.70
2023-05-03T16:58:31.241Z,70.40
2023-05-03T17:00:59.131Z,70.70
2023-05-03T17:03:27.069Z,69.90
2023-05-03T17:05:54.994Z,71.10
2023-05-03T17:08:24.247Z,71.40
2023-05-03T17:10:55.284Z,70.40
2023-05-03T17:13:23.141Z,68.90
2023-05-03T17:15:51.107Z,68.80
2023-05-03T17:18:21.163Z,69.50
2023-05-03T17:20:49.017Z,70.10
2023-05-03T17:23:24.542Z,69.40
2023-05-03T17:25:58.303Z,68.60
2023-05-03T17:28:32.607Z,69.70
2023-05-03T17:31:01.116Z,69.80
2023-05-03T17:33:31.786Z,68.80
2023-05-03T17:36:05.834Z,69.60
2023-05-03T17:38:37.921Z,68.80
2023-05-03T17:41:07.326Z,67.90
2023-05-03T17:43:35.636Z,68.40
2023-05-03T17:46:15.554Z,69.20
2023-05-03T17:48:44.383Z,69.80
2023-05-03T17:51:13.419Z,70.00
2023-05-03T17:53:43.403Z,69.50
2023-05-03T17:56:14.970Z,69.00
2023-05-03T17:58:43.579Z,69.70
2023-05-03T18:01:19.140Z,68.80
2023-05-03T18:03:47.314Z,68.40
2023-05-03T18:06:15.323Z,68.50
2023-05-03T18:08:44.575Z,69.40
2023-05-03T18:11:15.967Z,67.70
2023-05-03T18:13:44.869Z,68.70
2023-05-03T18:16:18.779Z,68.30
2023-05-03T18:18:56.002Z,68.80
2023-05-03T18:21:27.864Z,69.50
2023-05-03T18:23:57.301Z,69.00
2023-05-03T18:26:31.010Z,70.10
2023-05-03T18:29:01.727Z,70.80
2023-05-03T18:31:29.621Z,68.80
2023-05-03T18:33:57.552Z,69.30
2023-05-03T18:36:28.266Z,70.90
2023-05-03T18:38:57.510Z,69.60
2023-05-03T18:41:25.401Z,69.50
2023-05-03T18:43:54.480Z,69.90
2023-05-03T18:46:22.460Z,70.60
2023-05-03T18:48:54.138Z,69.70
2023-05-03T18:51:21.986Z,70.50
2023-05-03T18:53:52.886Z,69.90
2023-05-03T18:56:24.650Z,71.40
2023-05-03T18:58:55.361Z,69.70
2023-05-03T19:01:23.579Z,70.90
2023-05-03T19:03:51.564Z,71.00
2023-05-03T19:06:19.600Z,70.10
2023-05-03T19:08:50.494Z,70.50
2023-05-03T19:11:28.999Z,70.90
2023-05-03T19:14:09.328Z,72.20
2023-05-03T19:16:37.417Z,71.40
2023-05-03T19:19:05.333Z,70.60
2023-05-03T19:21:49.351Z,72.00
2023-05-03T19:24:22.737Z,71.00
2023-05-03T19:26:54.792Z,71.10
2023-05-03T19:29:22.706Z,72.20
2023-05-03T19:31:50.645Z,71.70
2023-05-03T19:34:18.605Z,71.60
2023-05-03T19:36:51.870Z,72.90
2023-05-03T19:39:19.775Z,71.80
2023-05-03T19:41:48.882Z,72.10
2023-05-03T19:44:18.180Z,72.70
2023-05-03T19:46:46.078Z,72.50
2023-05-03T19:49:13.974Z,72.00
2023-05-03T19:51:41.847Z,71.20
2023-05-03T19:54:15.817Z,71.80
2023-05-03T19:56:46.099Z,71.90
2023-05-03T19:59:14.001Z,71.80
2023-05-03T20:01:44.984Z,73.20
2023-05-03T20:04:13.035Z,74.20
2023-05-03T20:06:44.047Z,72.40
2023-05-03T20:09:12.799Z,73.30
2023-05-03T20:11:43.462Z,73.10
2023-05-03T20:14:13.828Z,72.80
2023-05-03T20:16:43.208Z,73.40
2023-05-03T20:19:17.639Z,72.30
2023-05-03T20:21:55.982Z,73.40
2023-05-03T20:24:26.264Z,72.50
2023-05-03T20:27:03.919Z,73.00
2023-05-03T20:29:34.693Z,73.60
2023-05-03T20:32:07.227Z,72.80
2023-05-03T20:34:37.325Z,75.20
2023-05-03T20:37:13.138Z,73.20
2023-05-03T20:39:49.027Z,74.00
2023-05-03T20:42:19.721Z,73.30
2023-05-03T20:44:53.945Z,72.00
2023-05-03T20:47:29.065Z,73.30
2023-05-03T20:49:59.384Z,72.80
2023-05-03T20:52:27.287Z,73.30
2023-05-03T20:55:01.009Z,72.40
2023-05-03T20:57:29.397Z,72.90
2023-05-03T20:59:59.757Z,73.50
2023-05-03T21:02:29.092Z,75.40
2023-05-03T21:05:03.353Z,73.00
2023-05-03T21:07:34.287Z,75.40
2023-05-03T21:12:43.959Z,75.20
2023-05-03T21:15:15.266Z,74.00
2023-05-03T21:17:44.520Z,72.60
2023-05-03T21:20:13.194Z,73.30
2023-05-03T21:22:41.048Z,73.50
2023-05-03T21:25:11.779Z,72.30
2023-05-03T21:27:48.769Z,72.70
2023-05-03T21:30:20.440Z,74.80
2023-05-03T21:32:50.101Z,74.40
2023-05-03T21:35:21.360Z,73.60
2023-05-03T21:37:49.817Z,71.10
2023-05-03T21:40:18.005Z,73.30
2023-05-03T21:42:46.017Z,72.90
2023-05-03T21:45:23.495Z,75.90
2023-05-03T21:47:58.660Z,76.70
2023-05-03T21:50:31.847Z,73.40
2023-05-03T21:53:08.608Z,73.80
2023-05-03T21:55:36.921Z,73.30
2023-05-03T21:58:16.788Z,73.90
2023-05-03T22:00:50.489Z,74.20
2023-05-03T22:03:19.790Z,73.90
2023-05-03T22:05:53.233Z,73.40
2023-05-03T22:08:21.630Z,76.80
2023-05-03T22:10:53.424Z,79.90
2023-05-03T22:13:24.190Z,75.00
2023-05-03T22:15:52.182Z,73.60
2023-05-03T22:18:21.405Z,72.90
2023-05-03T22:20:54.813Z,73.60
2023-05-03T22:23:22.691Z,73.60
2023-05-03T22:25:53.338Z,73.10
2023-05-03T22:28:24.280Z,73.10
2023-05-03T22:30:52.312Z,74.50
2023-05-03T22:33:21.573Z,74.60
2023-05-03T22:35:49.452Z,74.80
2023-05-03T22:38:23.399Z,74.80
2023-05-03T22:40:54.250Z,75.60
2023-05-03T22:43:28.309Z,78.20
2023-05-03T22:45:56.389Z,77.60
2023-05-03T22:48:29.921Z,78.00
2023-05-03T22:50:59.537Z,76.00
2023-05-03T22:53:27.678Z,76.10
2023-05-03T22:56:04.063Z,74.80
2023-05-03T22:58:39.117Z,76.30
2023-05-03T23:01:10.399Z,74.70
2023-05-03T23:03:39.805Z,77.30
2023-05-03T23:06:09.380Z,77.40
2023-05-03T23:08:39.835Z,76.60
2023-05-03T23:11:13.433Z,74.40
2023-05-03T23:13:41.308Z,75.60
2023-05-03T23:16:12.344Z,77.30
2023-05-03T23:18:41.681Z,79.30
2023-05-03T23:21:15.421Z,80.10
2023-05-03T23:23:43.357Z,77.70
2023-05-03T23:26:11.216Z,77.10
2023-05-03T23:28:39.550Z,78.40
2023-05-03T23:31:10.416Z,77.80
2023-05-03T23:33:38.887Z,77.50
2023-05-03T23:36:11.302Z,78.40
2023-05-03T23:38:45.247Z,78.80
2023-05-03T23:41:15.972Z,80.20
2023-05-03T23:43:51.322Z,80.70
2023-05-03T23:46:22.117Z,78.60
2023-05-03T23:48:50.056Z,79.10
2023-05-03T23:51:22.143Z,79.30
2023-05-03T23:53:59.252Z,74.70
2023-05-03T23:56:27.137Z,74.40
2023-05-03T23:58:58.102Z,74.20
